CDT,Max TemperatureF,Mean TemperatureF,Min TemperatureF,Max Dew PointF,MeanDew PointF,Min DewpointF,Max Humidity, Mean Humidity, Min Humidity, Max Sea Level PressureIn, Mean Sea Level PressureIn, Min Sea Level PressureIn, Max VisibilityMiles, Mean VisibilityMiles, Min VisibilityMiles, Max Wind SpeedMPH, Mean Wind SpeedMPH, Max Gust SpeedMPH,PrecipitationIn, CloudCover, Events, WindDirDegrees
2013-10-1,84,75,66,68,65,64,93,75,49,30.00,29.96,29.90,10,9,4,12,6,17,0.00,3,,148
2013-10-2,82,74,66,69,66,64,93,79,56,30.07,30.01,29.96,10,10,8,17,7,21,0.01,3,Rain,150
2013-10-3,82,75,68,67,66,65,93,75,54,29.98,29.93,29.88,10,10,7,17,10,22,0.00,3,,150
2013-10-4,84,76,69,68,65,63,90,72,53,29.97,29.91,29.87,10,10,10,18,11,24,0.00,2,,163
2013-10-5,71,58,46,68,55,45,100,93,82,30.07,30.00,29.89,10,6,0,17,7,26,1.69,7,Fog-Rain-Thunderstorm,308
2013-10-6,60,52,44,46,43,39,93,71,51,30.04,30.01,29.99,10,10,10,15,8,21,0.00,1,,258
2013-10-7,68,56,43,50,44,39,97,70,38,30.17,30.13,30.04,10,10,4,13,3,,0.00,0,,344
2013-10-8,72,59,46,52,47,42,100,64,35,30.18,30.12,30.07,10,3,0,15,6,18,0.00,1,Fog-Rain,123
2013-10-9,73,60,48,53,47,45,93,74,37,30.15,30.10,30.06,10,4,0,8,6,,0.00,0,Fog-Rain,118
2013-10-10,75,63,51,55,52,49,96,71,42,30.12,30.04,29.94,10,10,9,10,6,,0.00,0,,138
2013-10-11,75,66,57,63,60,53,94,76,61,29.98,29.92,29.88,10,10,10,21,9,29,0.00,5,,144
2013-10-12,68,64,59,63,61,53,94,85,73,30.18,30.06,29.90,10,10,7,16,7,20,0.35,6,Rain-Thunderstorm,35
2013-10-13,71,65,59,53,49,45,78,62,48,30.33,30.26,30.19,10,10,8,15,9,24,0.00,4,,79
2013-10-14,66,62,59,60,53,46,90,75,60,30.26,30.12,29.98,10,9,2,16,10,23,0.18,4,Rain,118
2013-10-15,64,58,51,63,57,48,96,90,82,30.08,29.98,29.91,10,9,3,15,9,20,0.12,7,Rain,297
2013-10-16,59,50,42,47,42,39,92,73,51,30.14,30.08,30.02,10,10,10,10,4,,0.00,3,Rain,337
2013-10-17,61,52,42,45,43,41,100,85,52,30.09,30.05,30.00,10,7,0,8,5,,0.00,3,Fog,229
2013-10-18,59,50,42,47,44,40,96,85,62,30.09,30.05,29.99,10,9,6,13,5,20,0.13,5,Rain,22
2013-10-19,57,46,35,40,37,33,100,81,40,30.17,30.10,30.05,10,9,2,14,9,18,0.04,5,Rain,274
2013-10-20,66,54,42,45,39,35,82,60,32,30.04,29.98,29.90,10,10,10,18,9,24,0.00,1,,181
2013-10-21,55,47,39,46,42,37,93,79,59,30.14,30.06,29.97,10,10,4,8,4,,0.01,4,Rain,53
2013-10-22,64,50,37,44,39,35,97,70,46,30.12,30.05,29.96,10,9,2,21,6,26,0.00,1,,246
2013-10-23,62,49,36,41,36,33,93,69,35,30.21,30.12,30.04,10,10,10,9,3,,0.00,0,,304
2013-10-24,52,46,36,45,38,27,100,82,39,30.44,30.21,30.11,10,6,0,15,3,23,0.00,3,Fog-Rain,26
2013-10-25,57,46,36,33,28,23,79,54,28,30.51,30.42,30.24,10,9,2,13,8,20,0.00,0,Rain,124
2013-10-26,63,54,45,52,46,32,93,72,60,30.22,30.16,30.12,10,10,10,17,8,23,0.00,6,,240
2013-10-27,63,52,42,49,41,32,93,69,34,30.12,30.07,30.01,10,10,5,7,3,,0.00,0,,85
2013-10-28,66,57,48,54,52,46,100,82,56,30.18,30.12,30.05,10,7,2,12,6,16,0.00,6,,162
2013-10-29,70,64,57,63,59,54,94,86,76,30.12,30.06,29.99,10,9,6,23,13,29,0.11,7,Rain,162
2013-10-30,66,64,62,63,62,59,100,92,84,30.07,29.97,29.81,10,6,1,18,7,23,1.89,8,Rain-Thunderstorm,146
2013-10-31,69,60,50,63,56,44,94,85,40,29.84,29.64,29.49,10,10,5,23,11,34,0.26,6,Rain-Thunderstorm,224